createdAt,value
2018-10-02T00:00:16.261Z,1.87
2018-10-02T00:02:46.128Z,2.20
2018-10-02T00:05:16.053Z,2.23
2018-10-02T00:07:47.326Z,2.20
2018-10-02T00:12:51.615Z,2.10
2018-10-02T00:15:21.549Z,3.10
2018-10-02T00:17:51.723Z,2.83
2018-10-02T00:20:24.509Z,3.10
2018-10-02T00:22:54.580Z,2.40
2018-10-02T00:25:24.350Z,2.60
2018-10-02T00:27:54.158Z,2.73
2018-10-02T00:30:24.080Z,2.23
2018-10-02T00:32:54.013Z,2.13
2018-10-02T00:35:25.494Z,2.23
2018-10-02T00:37:55.356Z,2.40
2018-10-02T00:40:25.375Z,2.00
2018-10-02T00:42:57.676Z,2.27
2018-10-02T00:45:27.711Z,2.20
2018-10-02T00:47:57.512Z,2.00
2018-10-02T00:50:30.150Z,2.30
2018-10-02T00:53:03.018Z,1.90
2018-10-02T00:55:34.957Z,2.10
2018-10-02T00:58:08.818Z,2.33
2018-10-02T01:00:39.912Z,2.30
2018-10-02T01:03:09.850Z,1.80
2018-10-02T01:05:40.017Z,1.80
2018-10-02T01:08:15.851Z,1.90
2018-10-02T01:10:46.547Z,2.03
2018-10-02T01:13:16.659Z,1.97
2018-10-02T01:15:49.134Z,2.27
2018-10-02T01:18:18.957Z,2.13
2018-10-02T01:20:50.164Z,2.20
2018-10-02T01:23:21.333Z,1.93
2018-10-02T01:25:52.326Z,2.40
2018-10-02T01:28:24.196Z,1.93
2018-10-02T01:30:54.640Z,2.07
2018-10-02T01:33:24.654Z,2.10
2018-10-02T01:35:54.819Z,2.37
2018-10-02T01:38:24.613Z,2.43
2018-10-02T01:40:54.487Z,2.27
2018-10-02T01:43:27.486Z,2.23
2018-10-02T01:45:57.720Z,2.33
2018-10-02T01:48:27.792Z,1.83
2018-10-02T01:51:00.125Z,2.00
2018-10-02T01:53:30.066Z,2.43
2018-10-02T01:56:00.049Z,2.30
2018-10-02T01:58:29.852Z,2.30
2018-10-02T02:01:00.145Z,2.90
2018-10-02T02:03:30.018Z,2.60
2018-10-02T02:05:59.926Z,2.20
2018-10-02T02:08:29.798Z,2.63
2018-10-02T02:11:00.945Z,3.07
2018-10-02T02:13:30.887Z,3.03
2018-10-02T02:16:00.655Z,2.40
2018-10-02T02:18:30.922Z,2.90
2018-10-02T02:21:00.895Z,2.60
2018-10-02T02:23:30.734Z,2.20
2018-10-02T02:26:00.568Z,2.13
2018-10-02T02:28:30.433Z,2.70
2018-10-02T02:31:00.406Z,2.27
2018-10-02T02:33:35.355Z,2.10
2018-10-02T02:36:06.368Z,2.30
2018-10-02T02:38:36.076Z,2.33
2018-10-02T02:41:06.308Z,2.00
2018-10-02T02:43:36.035Z,2.37
2018-10-02T02:46:05.930Z,1.93
2018-10-02T02:48:47.363Z,2.33
2018-10-02T02:51:24.856Z,2.50
2018-10-02T02:53:54.674Z,2.53
2018-10-02T02:56:26.040Z,2.27
2018-10-02T02:58:56.244Z,2.83
2018-10-02T03:01:26.000Z,2.27
2018-10-02T03:03:59.777Z,2.43
2018-10-02T03:06:31.272Z,2.30
2018-10-02T03:09:01.191Z,2.27
2018-10-02T03:11:31.002Z,2.90
2018-10-02T03:14:01.127Z,2.47
2018-10-02T03:16:33.124Z,3.37
2018-10-02T03:19:03.490Z,2.93
2018-10-02T03:21:33.458Z,2.73
2018-10-02T03:24:03.335Z,2.80
2018-10-02T03:26:33.328Z,2.60
2018-10-02T03:29:03.921Z,3.13
2018-10-02T03:31:33.844Z,2.67
2018-10-02T03:34:03.895Z,2.87
2018-10-02T03:36:33.922Z,3.40
2018-10-02T03:39:04.568Z,3.27
2018-10-02T03:41:34.408Z,3.70
2018-10-02T03:44:04.426Z,3.20
2018-10-02T03:46:34.494Z,3.23
2018-10-02T03:49:04.659Z,2.87
2018-10-02T03:51:34.635Z,3.67
2018-10-02T03:54:08.305Z,2.73
2018-10-02T03:56:38.095Z,3.47
2018-10-02T03:59:08.121Z,3.20
2018-10-02T04:01:38.030Z,3.00
2018-10-02T04:04:08.835Z,3.17
2018-10-02T04:06:38.734Z,3.00
2018-10-02T04:09:11.327Z,3.13
2018-10-02T04:11:41.177Z,3.07
2018-10-02T04:14:11.054Z,3.87
2018-10-02T04:16:41.014Z,3.73
2018-10-02T04:19:11.406Z,2.80
2018-10-02T04:21:41.239Z,3.37
2018-10-02T04:24:11.388Z,3.07
2018-10-02T04:26:41.723Z,3.57
2018-10-02T04:29:11.647Z,3.13
2018-10-02T04:31:41.440Z,3.30
2018-10-02T04:34:14.902Z,3.80
2018-10-02T04:36:48.183Z,3.50
2018-10-02T04:39:18.098Z,3.27
2018-10-02T04:41:49.574Z,2.80
2018-10-02T04:44:19.531Z,3.57
2018-10-02T04:46:49.883Z,2.90
2018-10-02T04:49:19.796Z,3.20
2018-10-02T04:51:51.418Z,3.70
2018-10-02T04:54:21.871Z,3.23
2018-10-02T04:56:51.736Z,3.43
2018-10-02T04:59:21.773Z,3.63
2018-10-02T05:01:51.641Z,3.97
2018-10-02T05:04:21.707Z,3.70
2018-10-02T05:06:53.327Z,3.60
2018-10-02T05:09:23.198Z,3.90
2018-10-02T05:11:53.390Z,3.93
2018-10-02T05:14:24.041Z,4.07
2018-10-02T05:16:54.360Z,4.37
2018-10-02T05:19:24.188Z,4.33
2018-10-02T05:21:54.066Z,5.43
2018-10-02T05:24:24.085Z,4.57
2018-10-02T05:26:53.876Z,3.73
2018-10-02T05:29:23.888Z,3.77
2018-10-02T05:31:54.053Z,3.57
2018-10-02T05:34:24.249Z,4.03
2018-10-02T05:36:54.265Z,4.27
2018-10-02T05:39:24.997Z,4.27
2018-10-02T05:41:55.217Z,4.83
2018-10-02T05:44:26.323Z,4.03
2018-10-02T05:46:57.098Z,4.10
2018-10-02T05:49:27.029Z,4.00
2018-10-02T05:51:58.060Z,3.60
2018-10-02T05:54:28.489Z,4.70
2018-10-02T05:56:58.494Z,3.80
2018-10-02T05:59:28.357Z,3.60
2018-10-02T06:01:58.450Z,3.60
2018-10-02T06:04:28.628Z,4.50
2018-10-02T06:06:58.486Z,4.37
2018-10-02T06:09:28.297Z,4.57
2018-10-02T06:11:58.104Z,4.57
2018-10-02T06:14:27.829Z,4.40
2018-10-02T06:16:58.531Z,4.67
2018-10-02T06:19:29.001Z,4.30
2018-10-02T06:21:58.801Z,3.87
2018-10-02T06:24:28.731Z,4.10
2018-10-02T06:26:58.969Z,4.93
2018-10-02T06:29:29.245Z,4.13
2018-10-02T06:31:59.157Z,4.13
2018-10-02T06:34:28.920Z,4.73
2018-10-02T06:36:59.614Z,4.27
2018-10-02T06:39:31.141Z,4.40
2018-10-02T06:42:07.505Z,4.60
2018-10-02T06:44:37.459Z,4.93
2018-10-02T06:47:09.499Z,4.33
2018-10-02T06:49:40.027Z,4.10
2018-10-02T06:52:14.955Z,3.93
2018-10-02T06:54:44.821Z,4.27
2018-10-02T06:57:14.617Z,4.20
2018-10-02T06:59:45.888Z,4.10
2018-10-02T07:02:15.952Z,4.50
2018-10-02T07:04:45.760Z,4.60
2018-10-02T07:07:16.469Z,4.07
2018-10-02T07:09:46.205Z,4.03
2018-10-02T07:12:16.128Z,4.13
2018-10-02T07:14:46.180Z,4.30
2018-10-02T07:17:16.033Z,3.70
2018-10-02T07:19:46.449Z,3.10
2018-10-02T07:22:16.649Z,3.33
2018-10-02T07:24:46.799Z,3.67
2018-10-02T07:27:16.968Z,3.20
2018-10-02T07:29:46.801Z,3.70
2018-10-02T07:32:17.467Z,3.07
2018-10-02T07:34:48.211Z,3.23
2018-10-02T07:39:56.980Z,3.20
2018-10-02T07:42:31.946Z,3.23
2018-10-02T07:45:04.663Z,3.70
2018-10-02T07:47:36.496Z,3.07
2018-10-02T07:50:22.412Z,2.70
2018-10-02T07:52:55.611Z,2.53
2018-10-02T07:55:25.673Z,2.33
2018-10-02T07:57:56.349Z,2.87
2018-10-02T08:00:29.759Z,2.20
2018-10-02T08:02:59.882Z,2.50
2018-10-02T08:05:31.401Z,2.60
2018-10-02T08:08:02.409Z,2.63
2018-10-02T08:10:33.410Z,2.77
2018-10-02T08:13:04.702Z,3.13
2018-10-02T08:15:34.700Z,3.07
2018-10-02T08:18:04.909Z,2.90
2018-10-02T08:20:34.800Z,2.33
2018-10-02T08:23:05.250Z,2.13
2018-10-02T08:25:35.448Z,2.73
2018-10-02T08:28:05.776Z,2.33
2018-10-02T08:30:39.068Z,2.70
2018-10-02T08:33:09.662Z,2.50
2018-10-02T08:35:39.977Z,3.33
2018-10-02T08:38:21.435Z,2.73
2018-10-02T08:40:52.238Z,3.30
2018-10-02T08:43:30.052Z,2.37
2018-10-02T08:46:02.343Z,2.63
2018-10-02T08:48:34.653Z,2.73
2018-10-02T08:51:09.190Z,2.43
2018-10-02T08:53:40.635Z,2.10
2018-10-02T08:56:10.706Z,2.53
2018-10-02T08:58:43.728Z,2.57
2018-10-02T09:01:14.257Z,2.30
2018-10-02T09:03:44.427Z,2.00
2018-10-02T09:06:14.621Z,2.47
2018-10-02T09:08:44.575Z,2.27
2018-10-02T09:11:14.895Z,2.40
2018-10-02T09:13:46.867Z,2.87
2018-10-02T09:16:16.853Z,2.73
2018-10-02T09:18:46.746Z,2.60
2018-10-02T09:21:16.871Z,2.17
2018-10-02T09:23:47.351Z,2.07
2018-10-02T09:26:17.459Z,1.70
2018-10-02T09:28:47.488Z,2.20
2018-10-02T09:31:22.341Z,1.53
2018-10-02T09:36:43.271Z,1.67
2018-10-02T09:39:18.241Z,1.83
2018-10-02T09:41:53.219Z,1.80
2018-10-02T09:44:23.348Z,1.97
2018-10-02T09:46:53.706Z,1.77
2018-10-02T09:49:23.549Z,1.97
2018-10-02T09:51:53.893Z,1.50
2018-10-02T09:54:24.201Z,1.50
2018-10-02T09:56:54.290Z,1.60
2018-10-02T09:59:24.195Z,1.90
2018-10-02T10:02:03.995Z,1.90
2018-10-02T10:04:37.406Z,2.30
2018-10-02T10:07:10.425Z,1.80
2018-10-02T10:09:41.104Z,1.70
2018-10-02T10:12:11.171Z,2.10
2018-10-02T10:14:41.196Z,2.10
2018-10-02T10:17:11.488Z,1.87
2018-10-02T10:19:44.913Z,2.07
2018-10-02T10:22:15.139Z,1.77
2018-10-02T10:24:45.173Z,1.93
2018-10-02T10:27:15.759Z,1.80
2018-10-02T10:29:46.182Z,1.70
2018-10-02T10:32:16.794Z,1.57
2018-10-02T10:34:47.304Z,1.60
2018-10-02T10:37:18.270Z,1.33
2018-10-02T10:39:48.837Z,1.97
2018-10-02T10:42:19.314Z,1.90
2018-10-02T10:44:49.313Z,2.07
2018-10-02T10:47:19.627Z,2.13
2018-10-02T10:49:51.150Z,1.60
2018-10-02T10:52:23.942Z,1.70
2018-10-02T10:55:07.159Z,2.03
2018-10-02T10:57:50.393Z,1.60
2018-10-02T11:00:28.967Z,1.47
2018-10-02T11:03:00.270Z,1.73
2018-10-02T11:05:33.081Z,1.77
2018-10-02T11:08:04.324Z,1.50
2018-10-02T11:10:37.280Z,2.07
2018-10-02T11:13:10.618Z,1.70
2018-10-02T11:15:45.849Z,1.67
2018-10-02T11:18:17.543Z,2.37
2018-10-02T11:20:49.195Z,1.60
2018-10-02T11:23:20.064Z,1.40
2018-10-02T11:25:50.435Z,1.93
2018-10-02T11:28:21.928Z,1.40
2018-10-02T11:30:52.131Z,2.00
2018-10-02T11:33:23.412Z,1.60
2018-10-02T11:35:53.492Z,1.47
2018-10-02T11:38:23.636Z,1.40
2018-10-02T11:40:53.696Z,1.80
2018-10-02T11:43:23.859Z,1.60
2018-10-02T11:45:54.027Z,1.70
2018-10-02T11:48:24.312Z,1.63
2018-10-02T11:50:55.625Z,1.27
2018-10-02T11:53:26.682Z,1.20
2018-10-02T11:55:57.877Z,1.53
2018-10-02T11:58:29.644Z,1.13
2018-10-02T12:00:59.999Z,1.43
2018-10-02T12:03:33.083Z,1.53
2018-10-02T12:06:03.142Z,1.17
2018-10-02T12:08:34.747Z,1.33
2018-10-02T12:11:05.540Z,1.37
2018-10-02T12:13:35.812Z,1.20
2018-10-02T12:16:06.140Z,1.33
2018-10-02T12:18:39.349Z,1.40
2018-10-02T12:21:10.391Z,1.20
2018-10-02T12:23:40.614Z,1.47
2018-10-02T12:26:14.700Z,1.57
2018-10-02T12:28:44.828Z,1.27
2018-10-02T12:31:16.093Z,1.50
2018-10-02T12:33:48.365Z,1.30
2018-10-02T12:36:18.352Z,1.10
2018-10-02T12:38:48.475Z,1.40
2018-10-02T12:41:18.664Z,1.30
2018-10-02T12:43:48.857Z,1.13
2018-10-02T12:46:19.059Z,1.50
2018-10-02T12:48:49.236Z,1.40
2018-10-02T12:51:19.382Z,1.20
2018-10-02T12:53:49.720Z,1.30
2018-10-02T12:56:21.340Z,1.00
2018-10-02T12:58:51.192Z,1.23
2018-10-02T13:01:21.271Z,1.37
2018-10-02T13:03:52.628Z,1.50
2018-10-02T13:06:22.866Z,1.13
2018-10-02T13:08:52.784Z,1.50
2018-10-02T13:11:22.811Z,1.40
2018-10-02T13:13:55.516Z,1.40
2018-10-02T13:16:30.566Z,1.50
2018-10-02T13:19:00.967Z,1.60
2018-10-02T13:21:33.296Z,1.00
2018-10-02T13:24:07.741Z,1.23
2018-10-02T13:26:45.704Z,1.10
2018-10-02T13:29:16.158Z,1.63
2018-10-02T13:31:48.440Z,1.17
2018-10-02T13:34:18.982Z,1.57
2018-10-02T13:36:54.535Z,1.57
2018-10-02T13:39:26.770Z,1.40
2018-10-02T13:41:57.640Z,1.47
2018-10-02T13:44:30.558Z,1.47
2018-10-02T13:47:01.402Z,1.17
2018-10-02T13:49:31.532Z,1.17
2018-10-02T13:52:03.107Z,1.20
2018-10-02T13:54:33.560Z,1.20
2018-10-02T13:57:03.800Z,1.33
2018-10-02T13:59:34.591Z,1.00
2018-10-02T14:02:11.379Z,1.50
2018-10-02T14:04:42.395Z,1.43
2018-10-02T14:07:12.961Z,1.20
2018-10-02T14:09:48.157Z,1.33
2018-10-02T14:12:25.950Z,1.43
2018-10-02T14:14:56.677Z,1.40
2018-10-02T14:17:27.408Z,1.23
2018-10-02T14:19:58.338Z,1.50
2018-10-02T14:25:47.881Z,1.20
2018-10-02T14:28:20.256Z,1.73
2018-10-02T14:30:53.824Z,1.73
2018-10-02T14:33:24.793Z,1.50
2018-10-02T14:35:55.225Z,2.30
2018-10-02T14:38:25.648Z,1.90
2018-10-02T14:40:58.094Z,1.73
2018-10-02T14:43:29.932Z,1.63
2018-10-02T14:46:00.584Z,1.77
2018-10-02T14:48:31.200Z,1.70
2018-10-02T14:51:02.811Z,1.87
2018-10-02T14:53:34.904Z,1.60
2018-10-02T14:56:11.273Z,1.70
2018-10-02T15:01:22.896Z,1.77
2018-10-02T15:06:36.966Z,1.50
2018-10-02T15:09:10.833Z,1.83
2018-10-02T15:11:49.892Z,2.00
2018-10-02T15:14:27.295Z,1.40
2018-10-02T15:16:58.291Z,1.90
2018-10-02T15:19:30.783Z,1.90
2018-10-02T15:22:06.099Z,1.67
2018-10-02T15:24:37.595Z,3.07
2018-10-02T15:27:08.047Z,1.90
2018-10-02T15:29:44.418Z,2.43
2018-10-02T15:32:17.470Z,1.87
2018-10-02T15:34:53.100Z,1.97
2018-10-02T15:37:24.773Z,2.00
2018-10-02T15:39:55.652Z,1.63
2018-10-02T15:42:28.384Z,1.70
2018-10-02T15:45:01.133Z,1.80
2018-10-02T15:47:36.074Z,1.43
2018-10-02T15:52:55.202Z,2.20
2018-10-02T15:55:27.187Z,1.80
2018-10-02T15:58:01.037Z,2.23
2018-10-02T16:03:11.860Z,2.00
2018-10-02T16:05:43.931Z,1.80
2018-10-02T16:08:17.079Z,2.20
2018-10-02T16:10:55.824Z,1.63
2018-10-02T16:13:26.686Z,2.93
2018-10-02T16:16:00.954Z,1.97
2018-10-02T16:18:34.447Z,1.60
2018-10-02T16:21:07.298Z,2.07
2018-10-02T16:23:42.454Z,1.43
2018-10-02T16:26:16.136Z,2.27
2018-10-02T16:31:32.985Z,1.73
2018-10-02T16:34:04.365Z,2.47
2018-10-02T16:36:40.590Z,1.47
2018-10-02T16:39:15.307Z,1.70
2018-10-02T16:41:46.524Z,1.40
2018-10-02T16:44:23.143Z,2.00
2018-10-02T16:47:00.124Z,1.83
2018-10-02T16:49:37.371Z,1.60
2018-10-02T16:52:13.905Z,1.30
2018-10-02T16:54:46.144Z,1.53
2018-10-02T17:00:19.759Z,1.90
2018-10-02T17:02:53.634Z,1.70
2018-10-02T17:05:32.679Z,1.67
2018-10-02T17:08:05.454Z,1.70
2018-10-02T17:10:46.173Z,1.30
2018-10-02T17:13:20.466Z,1.47
2018-10-02T17:15:51.971Z,1.30
2018-10-02T17:18:26.588Z,1.60
2018-10-02T17:20:59.149Z,1.47
2018-10-02T17:23:33.101Z,1.63
2018-10-02T17:26:05.249Z,1.43
2018-10-02T17:28:38.493Z,1.50
2018-10-02T17:31:16.994Z,1.30
2018-10-02T17:33:59.297Z,1.50
2018-10-02T17:36:33.490Z,1.37
2018-10-02T17:39:14.352Z,1.33
2018-10-02T17:41:52.110Z,1.90
2018-10-02T17:47:48.114Z,1.83
2018-10-02T18:05:42.293Z,1.50
2018-10-02T18:08:57.735Z,2.10
2018-10-02T18:11:31.893Z,2.10
2018-10-02T18:14:12.494Z,1.80
2018-10-02T18:16:52.204Z,1.40
2018-10-02T18:19:33.481Z,1.60
2018-10-02T18:25:25.755Z,1.33
2018-10-02T18:29:37.366Z,1.53
2018-10-02T18:38:53.446Z,1.70
2018-10-02T18:41:42.344Z,1.33
2018-10-02T18:47:08.787Z,1.87
2018-10-02T18:49:53.808Z,2.07
2018-10-02T18:55:09.224Z,1.60
2018-10-02T18:57:56.959Z,1.70
